sensor_id;sensor_type;location;lat;lon;timestamp;pressure;altitude;pressure_sealevel;temperature;humidity
35918;BME280;22011;59.912;30.300;2023-04-04T00:00:01;102274.47;;;1.04;68.72
35918;BME280;22011;59.912;30.300;2023-04-04T00:02:30;102283.88;;;1.08;69.10
35918;BME280;22011;59.912;30.300;2023-04-04T00:04:59;102274.34;;;1.05;69.04
35918;BME280;22011;59.912;30.300;2023-04-04T00:07:26;102276.28;;;1.02;69.24
35918;BME280;22011;59.912;30.300;2023-04-04T00:09:54;102275.50;;;1.00;69.13
35918;BME280;22011;59.912;30.300;2023-04-04T00:12:22;102280.63;;;1.03;69.64
35918;BME280;22011;59.912;30.300;2023-04-04T00:14:49;102281.38;;;1.05;69.37
35918;BME280;22011;59.912;30.300;2023-04-04T00:17:17;102271.97;;;1.01;70.19
35918;BME280;22011;59.912;30.300;2023-04-04T00:19:44;102269.34;;;1.01;69.94
35918;BME280;22011;59.912;30.300;2023-04-04T00:22:14;102277.91;;;1.04;70.63
35918;BME280;22011;59.912;30.300;2023-04-04T00:24:43;102271.84;;;1.04;70.37
35918;BME280;22011;59.912;30.300;2023-04-04T00:27:10;102261.47;;;1.01;70.93
35918;BME280;22011;59.912;30.300;2023-04-04T00:29:38;102264.22;;;0.97;70.69
35918;BME280;22011;59.912;30.300;2023-04-04T00:32:05;102265.16;;;0.96;70.29
35918;BME280;22011;59.912;30.300;2023-04-04T00:34:33;102263.31;;;0.98;70.68
35918;BME280;22011;59.912;30.300;2023-04-04T00:37:01;102257.06;;;1.01;70.86
35918;BME280;22011;59.912;30.300;2023-04-04T00:39:30;102259.53;;;1.04;70.61
35918;BME280;22011;59.912;30.300;2023-04-04T00:41:58;102255.31;;;1.02;70.88
35918;BME280;22011;59.912;30.300;2023-04-04T00:44:25;102256.22;;;1.01;70.97
35918;BME280;22011;59.912;30.300;2023-04-04T00:46:53;102256.34;;;0.97;71.08
35918;BME280;22011;59.912;30.300;2023-04-04T00:49:21;102259.91;;;0.96;72.04
35918;BME280;22011;59.912;30.300;2023-04-04T00:51:48;102261.66;;;0.96;70.55
35918;BME280;22011;59.912;30.300;2023-04-04T00:54:16;102253.81;;;0.96;71.47
35918;BME280;22011;59.912;30.300;2023-04-04T00:56:45;102252.03;;;0.96;71.68
35918;BME280;22011;59.912;30.300;2023-04-04T00:59:13;102246.84;;;0.95;71.56
35918;BME280;22011;59.912;30.300;2023-04-04T01:01:41;102251.25;;;0.94;70.86
35918;BME280;22011;59.912;30.300;2023-04-04T01:04:08;102251.25;;;0.94;70.93
35918;BME280;22011;59.912;30.300;2023-04-04T01:06:36;102249.66;;;0.90;71.36
35918;BME280;22011;59.912;30.300;2023-04-04T01:09:04;102254.25;;;0.85;71.34
35918;BME280;22011;59.912;30.300;2023-04-04T01:11:32;102251.78;;;0.82;71.02
35918;BME280;22011;59.912;30.300;2023-04-04T01:14:04;102251.50;;;0.88;71.02
35918;BME280;22011;59.912;30.300;2023-04-04T01:16:33;102255.78;;;0.91;71.42
35918;BME280;22011;59.912;30.300;2023-04-04T01:19:03;102254.78;;;0.93;71.09
35918;BME280;22011;59.912;30.300;2023-04-04T01:21:33;102246.06;;;0.93;71.11
35918;BME280;22011;59.912;30.300;2023-04-04T01:24:03;102245.28;;;0.91;70.66
35918;BME280;22011;59.912;30.300;2023-04-04T01:26:52;102241.78;;;0.90;70.33
35918;BME280;22011;59.912;30.300;2023-04-04T01:29:20;102238.47;;;0.87;70.77
35918;BME280;22011;59.912;30.300;2023-04-04T01:31:55;102243.16;;;0.99;69.94
35918;BME280;22011;59.912;30.300;2023-04-04T01:34:28;102232.34;;;0.86;70.47
35918;BME280;22011;59.912;30.300;2023-04-04T01:37:02;102234.06;;;0.87;71.85
35918;BME280;22011;59.912;30.300;2023-04-04T01:39:37;102235.91;;;0.85;71.08
35918;BME280;22011;59.912;30.300;2023-04-04T01:42:08;102235.75;;;0.88;70.86
35918;BME280;22011;59.912;30.300;2023-04-04T01:44:37;102240.44;;;0.82;71.00
35918;BME280;22011;59.912;30.300;2023-04-04T01:47:05;102234.31;;;0.81;70.61
35918;BME280;22011;59.912;30.300;2023-04-04T01:49:33;102235.25;;;0.80;71.15
35918;BME280;22011;59.912;30.300;2023-04-04T01:52:02;102226.53;;;0.80;70.98
35918;BME280;22011;59.912;30.300;2023-04-04T01:54:32;102230.97;;;0.78;70.65
35918;BME280;22011;59.912;30.300;2023-04-04T01:57:02;102222.13;;;0.80;70.53
35918;BME280;22011;59.912;30.300;2023-04-04T01:59:31;102222.19;;;0.79;70.64
35918;BME280;22011;59.912;30.300;2023-04-04T02:01:58;102228.44;;;0.76;71.34
35918;BME280;22011;59.912;30.300;2023-04-04T02:04:26;102224.94;;;0.76;71.36
35918;BME280;22011;59.912;30.300;2023-04-04T02:06:55;102230.84;;;0.81;70.49
35918;BME280;22011;59.912;30.300;2023-04-04T02:09:24;102219.38;;;0.83;70.13
35918;BME280;22011;59.912;30.300;2023-04-04T02:11:52;102226.38;;;0.83;70.10
35918;BME280;22011;59.912;30.300;2023-04-04T02:14:19;102223.81;;;0.81;69.95
35918;BME280;22011;59.912;30.300;2023-04-04T02:16:48;102221.94;;;0.85;70.93
35918;BME280;22011;59.912;30.300;2023-04-04T02:19:16;102216.88;;;0.80;70.81
35918;BME280;22011;59.912;30.300;2023-04-04T02:21:44;102222.19;;;0.79;70.30
35918;BME280;22011;59.912;30.300;2023-04-04T02:24:12;102219.50;;;0.80;71.23
35918;BME280;22011;59.912;30.300;2023-04-04T02:26:41;102221.34;;;0.78;69.82
35918;BME280;22011;59.912;30.300;2023-04-04T02:29:08;102215.31;;;0.76;69.83
35918;BME280;22011;59.912;30.300;2023-04-04T02:31:36;102213.59;;;0.75;70.41
35918;BME280;22011;59.912;30.300;2023-04-04T02:34:06;102215.16;;;0.79;71.22
35918;BME280;22011;59.912;30.300;2023-04-04T02:36:33;102218.78;;;0.77;71.08
35918;BME280;22011;59.912;30.300;2023-04-04T02:39:03;102219.56;;;0.79;70.39
35918;BME280;22011;59.912;30.300;2023-04-04T02:41:31;102211.69;;;0.79;69.76
35918;BME280;22011;59.912;30.300;2023-04-04T02:43:58;102220.34;;;0.81;69.78
35918;BME280;22011;59.912;30.300;2023-04-04T02:46:26;102233.34;;;0.84;70.07
35918;BME280;22011;59.912;30.300;2023-04-04T02:48:58;102222.72;;;0.87;70.61
35918;BME280;22011;59.912;30.300;2023-04-04T02:51:29;102216.59;;;0.86;70.87
35918;BME280;22011;59.912;30.300;2023-04-04T02:53:58;102216.81;;;0.82;71.07
35918;BME280;22011;59.912;30.300;2023-04-04T02:56:35;102217.53;;;0.85;70.07
35918;BME280;22011;59.912;30.300;2023-04-04T02:59:03;102215.69;;;0.87;69.82
35918;BME280;22011;59.912;30.300;2023-04-04T03:01:31;102212.28;;;0.85;69.62
35918;BME280;22011;59.912;30.300;2023-04-04T03:04:01;102209.66;;;0.85;70.14
35918;BME280;22011;59.912;30.300;2023-04-04T03:06:31;102212.28;;;0.85;70.84
35918;BME280;22011;59.912;30.300;2023-04-04T03:08:59;102210.72;;;0.81;70.52
35918;BME280;22011;59.912;30.300;2023-04-04T03:11:29;102215.97;;;0.81;70.25
35918;BME280;22011;59.912;30.300;2023-04-04T03:13:57;102208.09;;;0.81;71.02
35918;BME280;22011;59.912;30.300;2023-04-04T03:16:33;102212.63;;;0.78;71.48
35918;BME280;22011;59.912;30.300;2023-04-04T03:19:01;102212.41;;;0.82;70.79
35918;BME280;22011;59.912;30.300;2023-04-04T03:21:28;102208.75;;;0.86;70.98
35918;BME280;22011;59.912;30.300;2023-04-04T03:23:59;102210.38;;;0.89;70.61
35918;BME280;22011;59.912;30.300;2023-04-04T03:26:26;102207.16;;;0.82;70.54
35918;BME280;22011;59.912;30.300;2023-04-04T03:28:55;102214.19;;;0.82;71.04
35918;BME280;22011;59.912;30.300;2023-04-04T03:31:24;102211.50;;;0.83;71.61
35918;BME280;22011;59.912;30.300;2023-04-04T03:33:52;102207.16;;;0.82;71.85
35918;BME280;22011;59.912;30.300;2023-04-04T03:36:21;102199.22;;;0.84;71.65
35918;BME280;22011;59.912;30.300;2023-04-04T03:38:49;102206.91;;;0.88;70.92
35918;BME280;22011;59.912;30.300;2023-04-04T03:41:18;102206.63;;;0.94;71.61
35918;BME280;22011;59.912;30.300;2023-04-04T03:43:46;102204.13;;;0.91;71.78
35918;BME280;22011;59.912;30.300;2023-04-04T03:46:14;102208.75;;;0.86;71.77
35918;BME280;22011;59.912;30.300;2023-04-04T03:48:44;102210.50;;;0.86;71.97
35918;BME280;22011;59.912;30.300;2023-04-04T03:51:12;102202.44;;;0.90;72.36
35918;BME280;22011;59.912;30.300;2023-04-04T03:53:39;102212.00;;;0.91;71.99
35918;BME280;22011;59.912;30.300;2023-04-04T03:56:07;102201.38;;;0.94;72.20
35918;BME280;22011;59.912;30.300;2023-04-04T03:58:36;102210.97;;;0.95;72.05
35918;BME280;22011;59.912;30.300;2023-04-04T04:01:03;102204.94;;;0.93;71.90
35918;BME280;22011;59.912;30.300;2023-04-04T04:03:31;102205.91;;;0.91;71.95
35918;BME280;22011;59.912;30.300;2023-04-04T04:05:59;102204.34;;;0.87;71.63
35918;BME280;22011;59.912;30.300;2023-04-04T04:08:27;102200.72;;;0.89;72.03
35918;BME280;22011;59.912;30.300;2023-04-04T04:10:54;102201.31;;;0.96;71.49
35918;BME280;22011;59.912;30.300;2023-04-04T04:13:22;102204.59;;;1.01;70.84
35918;BME280;22011;59.912;30.300;2023-04-04T04:15:53;102197.19;;;1.09;71.07
35918;BME280;22011;59.912;30.300;2023-04-04T04:18:22;102196.47;;;1.06;70.65
35918;BME280;22011;59.912;30.300;2023-04-04T04:20:55;102188.25;;;1.13;70.26
35918;BME280;22011;59.912;30.300;2023-04-04T04:23:23;102186.69;;;1.09;69.65
35918;BME280;22011;59.912;30.300;2023-04-04T04:25:51;102192.94;;;1.07;70.52
35918;BME280;22011;59.912;30.300;2023-04-04T04:28:22;102185.97;;;1.06;70.08
35918;BME280;22011;59.912;30.300;2023-04-04T04:30:51;102190.31;;;1.07;69.61
35918;BME280;22011;59.912;30.300;2023-04-04T04:33:27;102197.63;;;1.19;69.63
35918;BME280;22011;59.912;30.300;2023-04-04T04:35:59;102189.44;;;1.06;69.64
35918;BME280;22011;59.912;30.300;2023-04-04T04:38:33;102180.44;;;1.12;69.67
35918;BME280;22011;59.912;30.300;2023-04-04T04:41:02;102181.88;;;1.19;69.53
35918;BME280;22011;59.912;30.300;2023-04-04T04:43:39;102171.38;;;1.19;69.24
35918;BME280;22011;59.912;30.300;2023-04-04T04:46:08;102178.19;;;1.23;69.34
35918;BME280;22011;59.912;30.300;2023-04-04T04:48:36;102177.53;;;1.18;69.63
35918;BME280;22011;59.912;30.300;2023-04-04T04:51:04;102182.16;;;1.13;70.24
35918;BME280;22011;59.912;30.300;2023-04-04T04:53:42;102175.97;;;1.14;70.54
35918;BME280;22011;59.912;30.300;2023-04-04T04:56:10;102174.13;;;1.16;70.33
35918;BME280;22011;59.912;30.300;2023-04-04T04:58:40;102175.69;;;1.20;69.96
35918;BME280;22011;59.912;30.300;2023-04-04T05:01:13;102174.78;;;1.21;69.24
35918;BME280;22011;59.912;30.300;2023-04-04T05:03:40;102168.94;;;1.14;69.59
35918;BME280;22011;59.912;30.300;2023-04-04T05:06:12;102174.13;;;1.16;69.54
35918;BME280;22011;59.912;30.300;2023-04-04T05:08:39;102178.75;;;1.11;69.07
35918;BME280;22011;59.912;30.300;2023-04-04T05:11:25;102170.28;;;1.04;69.18
35918;BME280;22011;59.912;30.300;2023-04-04T05:13:53;102172.78;;;1.07;69.22
35918;BME280;22011;59.912;30.300;2023-04-04T05:16:23;102171.50;;;1.16;69.03
35918;BME280;22011;59.912;30.300;2023-04-04T05:18:55;102173.06;;;1.20;69.01
35918;BME280;22011;59.912;30.300;2023-04-04T05:21:22;102170.50;;;1.18;70.06
35918;BME280;22011;59.912;30.300;2023-04-04T05:23:52;102172.16;;;1.21;70.24
35918;BME280;22011;59.912;30.300;2023-04-04T05:26:22;102173.78;;;1.23;69.01
35918;BME280;22011;59.912;30.300;2023-04-04T05:28:53;102167.94;;;1.54;69.66
35918;BME280;22011;59.912;30.300;2023-04-04T05:31:22;102172.22;;;1.38;68.31
35918;BME280;22011;59.912;30.300;2023-04-04T05:33:53;102170.44;;;1.39;68.61
35918;BME280;22011;59.912;30.300;2023-04-04T05:36:31;102167.19;;;1.34;68.11
35918;BME280;22011;59.912;30.300;2023-04-04T05:39:04;102161.56;;;1.41;68.00
35918;BME280;22011;59.912;30.300;2023-04-04T05:41:34;102164.84;;;1.46;68.18
35918;BME280;22011;59.912;30.300;2023-04-04T05:44:09;102164.91;;;1.45;67.55
35918;BME280;22011;59.912;30.300;2023-04-04T05:46:37;102170.16;;;1.45;67.25
35918;BME280;22011;59.912;30.300;2023-04-04T05:49:06;102161.28;;;1.47;67.96
35918;BME280;22011;59.912;30.300;2023-04-04T05:51:37;102165.97;;;1.41;67.59
35918;BME280;22011;59.912;30.300;2023-04-04T05:54:13;102167.59;;;1.43;67.57
35918;BME280;22011;59.912;30.300;2023-04-04T05:56:42;102155.41;;;1.42;67.54
35918;BME280;22011;59.912;30.300;2023-04-04T05:59:16;102166.81;;;1.41;68.50
35918;BME280;22011;59.912;30.300;2023-04-04T06:01:55;102162.50;;;1.40;68.31
35918;BME280;22011;59.912;30.300;2023-04-04T06:04:24;102155.09;;;1.48;66.98
35918;BME280;22011;59.912;30.300;2023-04-04T06:06:54;102158.66;;;1.47;66.21
35918;BME280;22011;59.912;30.300;2023-04-04T06:09:21;102157.50;;;1.53;66.60
35918;BME280;22011;59.912;30.300;2023-04-04T06:11:49;102154.59;;;1.59;67.29
35918;BME280;22011;59.912;30.300;2023-04-04T06:14:17;102152.03;;;1.57;65.52
35918;BME280;22011;59.912;30.300;2023-04-04T06:16:46;102160.06;;;1.54;67.36
35918;BME280;22011;59.912;30.300;2023-04-04T06:19:14;102155.59;;;1.56;65.99
35918;BME280;22011;59.912;30.300;2023-04-04T06:21:44;102154.66;;;1.57;66.39
35918;BME280;22011;59.912;30.300;2023-04-04T06:24:13;102152.97;;;1.56;65.87
35918;BME280;22011;59.912;30.300;2023-04-04T06:26:40;102156.66;;;1.52;65.63
35918;BME280;22011;59.912;30.300;2023-04-04T06:29:10;102152.91;;;1.58;65.81
35918;BME280;22011;59.912;30.300;2023-04-04T06:31:40;102146.63;;;1.60;65.93
35918;BME280;22011;59.912;30.300;2023-04-04T06:34:23;102149.75;;;1.69;66.18
35918;BME280;22011;59.912;30.300;2023-04-04T06:36:57;102151.16;;;1.76;65.48
35918;BME280;22011;59.912;30.300;2023-04-04T06:39:29;102147.06;;;1.70;65.87
35918;BME280;22011;59.912;30.300;2023-04-04T06:42:02;102144.13;;;1.76;66.01
35918;BME280;22011;59.912;30.300;2023-04-04T06:44:32;102150.00;;;1.81;65.38
35918;BME280;22011;59.912;30.300;2023-04-04T06:47:01;102148.63;;;1.91;65.02
35918;BME280;22011;59.912;30.300;2023-04-04T06:49:29;102147.06;;;1.87;66.00
35918;BME280;22011;59.912;30.300;2023-04-04T06:51:58;102147.78;;;1.91;67.01
35918;BME280;22011;59.912;30.300;2023-04-04T06:54:26;102135.09;;;1.99;65.61
35918;BME280;22011;59.912;30.300;2023-04-04T06:56:53;102140.72;;;2.09;65.88
35918;BME280;22011;59.912;30.300;2023-04-04T06:59:21;102131.16;;;2.08;65.35
35918;BME280;22011;59.912;30.300;2023-04-04T07:01:48;102132.16;;;2.05;65.60
35918;BME280;22011;59.912;30.300;2023-04-04T07:04:17;102141.88;;;2.20;64.24
35918;BME280;22011;59.912;30.300;2023-04-04T07:06:45;102137.31;;;2.24;63.57
35918;BME280;22011;59.912;30.300;2023-04-04T07:09:13;102139.88;;;2.25;64.27
35918;BME280;22011;59.912;30.300;2023-04-04T07:11:41;102137.56;;;2.19;64.43
35918;BME280;22011;59.912;30.300;2023-04-04T07:14:08;102144.97;;;2.28;63.84
35918;BME280;22011;59.912;30.300;2023-04-04T07:16:36;102143.66;;;2.37;63.00
35918;BME280;22011;59.912;30.300;2023-04-04T07:19:03;102139.31;;;2.36;63.82
35918;BME280;22011;59.912;30.300;2023-04-04T07:21:31;102139.25;;;2.38;62.92
35918;BME280;22011;59.912;30.300;2023-04-04T07:23:59;102138.69;;;2.48;62.84
35918;BME280;22011;59.912;30.300;2023-04-04T07:26:28;102136.59;;;2.55;63.34
35918;BME280;22011;59.912;30.300;2023-04-04T07:28:56;102132.19;;;2.55;63.95
35918;BME280;22011;59.912;30.300;2023-04-04T07:31:24;102137.44;;;2.55;63.96
35918;BME280;22011;59.912;30.300;2023-04-04T07:34:10;102140.03;;;2.73;63.49
35918;BME280;22011;59.912;30.300;2023-04-04T07:36:47;102141.84;;;2.55;62.57
35918;BME280;22011;59.912;30.300;2023-04-04T07:39:14;102146.81;;;2.61;62.83
35918;BME280;22011;59.912;30.300;2023-04-04T07:41:44;102144.47;;;2.72;61.74
35918;BME280;22011;59.912;30.300;2023-04-04T07:44:11;102139.63;;;2.80;61.27
35918;BME280;22011;59.912;30.300;2023-04-04T07:46:41;102136.94;;;2.82;61.14
35918;BME280;22011;59.912;30.300;2023-04-04T07:49:09;102138.00;;;3.11;62.57
35918;BME280;22011;59.912;30.300;2023-04-04T07:51:36;102140.41;;;2.82;63.12
35918;BME280;22011;59.912;30.300;2023-04-04T07:54:05;102152.97;;;2.77;63.97
35918;BME280;22011;59.912;30.300;2023-04-04T07:56:33;102146.00;;;2.76;63.86
35918;BME280;22011;59.912;30.300;2023-04-04T07:59:02;102157.06;;;2.83;62.57
35918;BME280;22011;59.912;30.300;2023-04-04T08:01:29;102146.00;;;2.76;62.50
35918;BME280;22011;59.912;30.300;2023-04-04T08:03:57;102154.06;;;2.73;62.05
35918;BME280;22011;59.912;30.300;2023-04-04T08:06:24;102149.41;;;2.78;62.57
35918;BME280;22011;59.912;30.300;2023-04-04T08:08:52;102143.13;;;2.81;63.55
35918;BME280;22011;59.912;30.300;2023-04-04T08:11:19;102151.19;;;2.78;63.38
35918;BME280;22011;59.912;30.300;2023-04-04T08:13:48;102156.53;;;2.76;63.45
35918;BME280;22011;59.912;30.300;2023-04-04T08:16:17;102157.38;;;2.77;64.94
35918;BME280;22011;59.912;30.300;2023-04-04T08:18:45;102158.38;;;2.74;64.91
35918;BME280;22011;59.912;30.300;2023-04-04T08:21:12;102161.94;;;2.73;63.46
35918;BME280;22011;59.912;30.300;2023-04-04T08:23:40;102161.19;;;2.71;63.23
35918;BME280;22011;59.912;30.300;2023-04-04T08:26:07;102169.00;;;2.73;63.38
35918;BME280;22011;59.912;30.300;2023-04-04T08:28:36;102161.03;;;2.74;63.16
35918;BME280;22011;59.912;30.300;2023-04-04T08:31:04;102161.25;;;2.70;64.26
35918;BME280;22011;59.912;30.300;2023-04-04T08:33:33;102161.34;;;2.68;64.12
35918;BME280;22011;59.912;30.300;2023-04-04T08:36:00;102162.44;;;2.64;64.38
35918;BME280;22011;59.912;30.300;2023-04-04T08:38:28;102169.38;;;2.65;64.79
35918;BME280;22011;59.912;30.300;2023-04-04T08:40:55;102161.94;;;2.73;65.16
35918;BME280;22011;59.912;30.300;2023-04-04T08:43:24;102161.91;;;2.90;64.00
35918;BME280;22011;59.912;30.300;2023-04-04T08:45:53;102158.03;;;2.98;64.34
35918;BME280;22011;59.912;30.300;2023-04-04T08:48:21;102160.41;;;3.02;64.72
35918;BME280;22011;59.912;30.300;2023-04-04T08:50:53;102160.94;;;3.09;62.91
35918;BME280;22011;59.912;30.300;2023-04-04T08:53:23;102159.31;;;3.06;61.57
35918;BME280;22011;59.912;30.300;2023-04-04T08:55:53;102164.91;;;3.16;62.19
35918;BME280;22011;59.912;30.300;2023-04-04T08:58:23;102165.81;;;3.15;62.52
35918;BME280;22011;59.912;30.300;2023-04-04T09:00:51;102160.06;;;3.24;62.27
35918;BME280;22011;59.912;30.300;2023-04-04T09:03:21;102163.03;;;3.34;62.82
35918;BME280;22011;59.912;30.300;2023-04-04T09:05:53;102156.06;;;3.33;60.70
35918;BME280;22011;59.912;30.300;2023-04-04T09:08:21;102156.06;;;3.64;61.89
35918;BME280;22011;59.912;30.300;2023-04-04T09:10:50;102154.81;;;3.40;60.79
35918;BME280;22011;59.912;30.300;2023-04-04T09:13:18;102156.75;;;3.36;61.53
35918;BME280;22011;59.912;30.300;2023-04-04T09:15:47;102160.16;;;3.38;61.99
35918;BME280;22011;59.912;30.300;2023-04-04T09:18:16;102156.91;;;3.33;60.57
35918;BME280;22011;59.912;30.300;2023-04-04T09:20:44;102158.28;;;3.40;60.47
35918;BME280;22011;59.912;30.300;2023-04-04T09:23:15;102152.34;;;3.52;61.78
35918;BME280;22011;59.912;30.300;2023-04-04T09:25:47;102148.09;;;3.50;62.47
35918;BME280;22011;59.912;30.300;2023-04-04T09:28:15;102155.81;;;3.37;62.52
35918;BME280;22011;59.912;30.300;2023-04-04T09:30:43;102152.16;;;3.40;61.26
35918;BME280;22011;59.912;30.300;2023-04-04T09:33:14;102148.50;;;3.74;62.24
35918;BME280;22011;59.912;30.300;2023-04-04T09:35:44;102154.38;;;3.47;62.21
35918;BME280;22011;59.912;30.300;2023-04-04T09:38:14;102151.47;;;3.52;61.03
35918;BME280;22011;59.912;30.300;2023-04-04T09:40:43;102142.81;;;3.50;60.66
35918;BME280;22011;59.912;30.300;2023-04-04T09:43:11;102154.38;;;3.47;62.61
35918;BME280;22011;59.912;30.300;2023-04-04T09:45:43;102159.91;;;3.43;61.41
35918;BME280;22011;59.912;30.300;2023-04-04T09:48:11;102148.94;;;3.50;61.52
35918;BME280;22011;59.912;30.300;2023-04-04T09:50:45;102149.34;;;3.74;60.98
35918;BME280;22011;59.912;30.300;2023-04-04T09:53:16;102151.38;;;3.85;60.27
35918;BME280;22011;59.912;30.300;2023-04-04T09:55:48;102151.50;;;3.98;61.21
35918;BME280;22011;59.912;30.300;2023-04-04T09:58:18;102143.09;;;3.91;61.17
35918;BME280;22011;59.912;30.300;2023-04-04T10:00:46;102153.47;;;3.94;60.26
35918;BME280;22011;59.912;30.300;2023-04-04T10:03:15;102155.16;;;3.95;60.14
35918;BME280;22011;59.912;30.300;2023-04-04T10:05:44;102160.28;;;3.98;60.53
35918;BME280;22011;59.912;30.300;2023-04-04T10:08:18;102159.81;;;4.06;61.04
35918;BME280;22011;59.912;30.300;2023-04-04T10:10:47;102159.50;;;3.96;59.33
35918;BME280;22011;59.912;30.300;2023-04-04T10:13:22;102167.81;;;4.04;58.66
35918;BME280;22011;59.912;30.300;2023-04-04T10:15:51;102157.97;;;3.92;58.34
35918;BME280;22011;59.912;30.300;2023-04-04T10:18:21;102147.25;;;3.95;58.13
35918;BME280;22011;59.912;30.300;2023-04-04T10:20:49;102158.56;;;3.97;60.14
35918;BME280;22011;59.912;30.300;2023-04-04T10:23:18;102173.63;;;3.95;58.84
35918;BME280;22011;59.912;30.300;2023-04-04T10:25:48;102165.91;;;3.92;60.33
35918;BME280;22011;59.912;30.300;2023-04-04T10:28:16;102172.19;;;3.89;60.59
35918;BME280;22011;59.912;30.300;2023-04-04T10:30:48;102165.91;;;3.92;59.83
35918;BME280;22011;59.912;30.300;2023-04-04T10:33:22;102170.50;;;3.88;60.06
35918;BME280;22011;59.912;30.300;2023-04-04T10:35:58;102174.56;;;3.94;61.36
35918;BME280;22011;59.912;30.300;2023-04-04T10:38:31;102166.06;;;3.89;59.98
35918;BME280;22011;59.912;30.300;2023-04-04T10:41:05;102171.50;;;3.86;59.33
35918;BME280;22011;59.912;30.300;2023-04-04T10:43:37;102171.59;;;3.84;60.83
35918;BME280;22011;59.912;30.300;2023-04-04T10:46:10;102167.34;;;3.82;60.66
35918;BME280;22011;59.912;30.300;2023-04-04T10:48:40;102170.16;;;3.79;60.28
35918;BME280;22011;59.912;30.300;2023-04-04T10:51:10;102175.44;;;3.79;59.75
35918;BME280;22011;59.912;30.300;2023-04-04T10:53:39;102172.97;;;3.76;60.92
35918;BME280;22011;59.912;30.300;2023-04-04T10:56:07;102170.84;;;3.67;60.85
35918;BME280;22011;59.912;30.300;2023-04-04T10:58:38;102171.38;;;3.73;61.70
35918;BME280;22011;59.912;30.300;2023-04-04T11:01:06;102175.03;;;3.71;62.83
35918;BME280;22011;59.912;30.300;2023-04-04T11:07:13;102174.69;;;3.77;62.69
35918;BME280;22011;59.912;30.300;2023-04-04T11:09:51;102178.41;;;3.73;62.55
35918;BME280;22011;59.912;30.300;2023-04-04T11:12:38;102176.13;;;3.82;62.55
35918;BME280;22011;59.912;30.300;2023-04-04T11:15:11;102167.47;;;3.65;60.55
35918;BME280;22011;59.912;30.300;2023-04-04T11:17:58;102172.03;;;3.77;61.52
35918;BME280;22011;59.912;30.300;2023-04-04T11:20:30;102162.34;;;3.61;62.33
35918;BME280;22011;59.912;30.300;2023-04-04T11:23:04;102180.03;;;3.59;61.51
35918;BME280;22011;59.912;30.300;2023-04-04T11:25:34;102182.09;;;3.54;62.28
35918;BME280;22011;59.912;30.300;2023-04-04T11:28:13;102175.13;;;3.53;62.81
35918;BME280;22011;59.912;30.300;2023-04-04T11:30:43;102181.06;;;3.41;62.70
35918;BME280;22011;59.912;30.300;2023-04-04T11:33:24;102184.28;;;3.46;63.70
35918;BME280;22011;59.912;30.300;2023-04-04T11:35:57;102183.09;;;3.36;64.60
35918;BME280;22011;59.912;30.300;2023-04-04T11:38:26;102181.81;;;3.27;64.31
35918;BME280;22011;59.912;30.300;2023-04-04T11:40:56;102185.91;;;3.33;62.95
35918;BME280;22011;59.912;30.300;2023-04-04T11:43:24;102177.31;;;3.29;63.10
35918;BME280;22011;59.912;30.300;2023-04-04T11:45:52;102176.63;;;3.26;62.92
35918;BME280;22011;59.912;30.300;2023-04-04T11:48:21;102172.03;;;3.29;64.05
35918;BME280;22011;59.912;30.300;2023-04-04T11:50:49;102169.41;;;3.29;64.97
35918;BME280;22011;59.912;30.300;2023-04-04T11:53:16;102168.66;;;3.27;62.75
35918;BME280;22011;59.912;30.300;2023-04-04T11:55:47;102180.81;;;3.30;63.62
35918;BME280;22011;59.912;30.300;2023-04-04T11:58:17;102181.13;;;3.24;63.35
35918;BME280;22011;59.912;30.300;2023-04-04T12:00:45;102177.47;;;3.26;62.63
35918;BME280;22011;59.912;30.300;2023-04-04T12:03:15;102174.44;;;3.34;62.36
35918;BME280;22011;59.912;30.300;2023-04-04T12:05:44;102179.38;;;3.40;61.87
35918;BME280;22011;59.912;30.300;2023-04-04T12:08:13;102177.31;;;3.45;61.97
35918;BME280;22011;59.912;30.300;2023-04-04T12:10:41;102175.47;;;3.47;61.98
35918;BME280;22011;59.912;30.300;2023-04-04T12:13:09;102174.78;;;3.44;62.55
35918;BME280;22011;59.912;30.300;2023-04-04T12:15:41;102176.91;;;3.53;62.44
35918;BME280;22011;59.912;30.300;2023-04-04T12:18:19;102175.03;;;3.55;63.63
35918;BME280;22011;59.912;30.300;2023-04-04T12:20:47;102172.81;;;3.47;61.74
35918;BME280;22011;59.912;30.300;2023-04-04T12:23:17;102175.38;;;3.49;62.19
35918;BME280;22011;59.912;30.300;2023-04-04T12:25:45;102168.16;;;3.52;61.45
35918;BME280;22011;59.912;30.300;2023-04-04T12:28:18;102176.97;;;3.51;61.66
35918;BME280;22011;59.912;30.300;2023-04-04T12:30:48;102173.50;;;3.51;63.03
35918;BME280;22011;59.912;30.300;2023-04-04T12:33:16;102173.59;;;3.49;62.87
35918;BME280;22011;59.912;30.300;2023-04-04T12:35:50;102178.50;;;3.55;64.85
35918;BME280;22011;59.912;30.300;2023-04-04T12:38:18;102174.59;;;3.47;62.60
35918;BME280;22011;59.912;30.300;2023-04-04T12:40:45;102175.97;;;3.54;62.25
35918;BME280;22011;59.912;30.300;2023-04-04T12:43:15;102178.09;;;3.63;61.74
35918;BME280;22011;59.912;30.300;2023-04-04T12:45:43;102175.78;;;3.57;63.13
35918;BME280;22011;59.912;30.300;2023-04-04T12:48:13;102179.69;;;3.50;63.50
35918;BME280;22011;59.912;30.300;2023-04-04T12:50:53;102180.03;;;3.59;65.37
35918;BME280;22011;59.912;30.300;2023-04-04T12:53:23;102179.19;;;3.43;64.70
35918;BME280;22011;59.912;30.300;2023-04-04T12:55:51;102176.28;;;3.32;64.22
35918;BME280;22011;59.912;30.300;2023-04-04T12:58:20;102172.03;;;3.29;64.79
35918;BME280;22011;59.912;30.300;2023-04-04T13:00:49;102178.50;;;3.24;65.45
35918;BME280;22011;59.912;30.300;2023-04-04T13:03:19;102179.34;;;3.24;64.55
35918;BME280;22011;59.912;30.300;2023-04-04T13:05:47;102178.59;;;3.22;65.34